Time;durP1;ratioP1;P1;durP2;ratioP2;P2;SDS_P1;SDS_P2;PMS_P1;PMS_P2;Temp;Humidity;BMP_temperature;BMP_pressure;BME280_temperature;BME280_humidity;BME280_pressure;Samples;Min_cycle;Max_cycle;Signal;HPM_P1;HPM_P2
2022/11/18 00:00:51;;;;;;;32.42;22.50;;;6.90;99.90;;;;;;5009478;28;20124;-69
2022/11/18 00:03:17;;;;;;;31.00;22.52;;;6.90;99.90;;;;;;5010778;28;20041;-70
2022/11/18 00:05:51;;;;;;;33.75;23.42;;;7.00;99.90;;;;;;5012575;28;20048;-70
2022/11/18 00:08:16;;;;;;;33.20;22.30;;;6.90;99.90;;;;;;5008488;28;20045;-70
2022/11/18 00:10:42;;;;;;;30.67;21.63;;;6.90;99.90;;;;;;5009377;28;20514;-70
2022/11/18 00:16:07;;;;;;;32.75;23.08;;;6.90;99.90;;;;;;5014674;28;20053;-70
2022/11/18 00:18:33;;;;;;;32.53;22.67;;;6.90;99.90;;;;;;4998451;28;20509;-70
2022/11/18 00:21:08;;;;;;;33.67;23.15;;;6.90;99.90;;;;;;5011705;28;20038;-71
2022/11/18 00:23:34;;;;;;;29.10;22.15;;;6.90;99.90;;;;;;5010418;28;20117;-71
2022/11/18 00:26:08;;;;;;;33.88;23.23;;;6.90;99.90;;;;;;5011109;28;20072;-69
2022/11/18 00:28:34;;;;;;;35.08;24.02;;;6.90;99.90;;;;;;5009555;28;20050;-70
2022/11/18 00:31:05;;;;;;;33.75;22.85;;;7.00;99.90;;;;;;4994110;28;20042;-71
2022/11/18 00:33:31;;;;;;;37.15;24.35;;;6.90;99.90;;;;;;5012211;28;20108;-70
2022/11/18 00:35:57;;;;;;;37.47;23.35;;;7.10;99.90;;;;;;5010022;28;20042;-69
2022/11/18 00:38:24;;;;;;;35.65;24.35;;;6.90;99.90;;;;;;5009038;28;20546;-70
2022/11/18 00:41:03;;;;;;;33.60;23.65;;;6.90;99.90;;;;;;4994364;28;20037;-69
2022/11/18 00:43:30;;;;;;;34.45;23.02;;;6.90;99.90;;;;;;5010407;28;20044;-69
2022/11/18 00:45:56;;;;;;;32.13;22.83;;;6.90;99.90;;;;;;4996055;28;20033;-70
2022/11/18 00:48:22;;;;;;;34.38;23.50;;;6.90;99.90;;;;;;5011062;28;20055;-70
2022/11/18 00:50:53;;;;;;;34.42;23.80;;;6.90;99.90;;;;;;5008975;28;20045;-69
2022/11/18 00:53:20;;;;;;;35.55;24.30;;;6.90;99.90;;;;;;5005369;28;20134;-70
2022/11/18 00:55:46;;;;;;;31.88;22.67;;;6.90;99.90;;;;;;5006009;28;20055;-70
2022/11/18 00:58:15;;;;;;;34.35;23.30;;;6.90;99.90;;;;;;5008395;28;20103;-70
2022/11/18 01:00:47;;;;;;;35.00;23.88;;;6.90;99.90;;;;;;5005071;28;20045;-69
2022/11/18 01:03:13;;;;;;;36.85;24.58;;;6.90;99.90;;;;;;5008140;28;20056;-70
2022/11/18 01:05:39;;;;;;;33.58;23.23;;;6.90;99.90;;;;;;5007821;28;20521;-71
2022/11/18 01:08:07;;;;;;;37.28;24.60;;;6.90;99.90;;;;;;5007650;28;20042;-71
2022/11/18 01:10:34;;;;;;;38.65;24.52;;;6.90;99.90;;;;;;4991478;28;20077;-69
2022/11/18 01:15:49;;;;;;;41.65;23.45;;;6.90;99.90;;;;;;5006695;28;20057;-70
2022/11/18 01:18:16;;;;;;;35.28;24.33;;;6.90;99.90;;;;;;5007164;28;20529;-70
2022/11/18 01:20:42;;;;;;;37.13;23.98;;;7.20;99.90;;;;;;5008518;28;20045;-70
2022/11/18 01:23:08;;;;;;;35.00;23.63;;;7.10;99.90;;;;;;4992978;28;20120;-70
2022/11/18 01:25:36;;;;;;;37.40;23.95;;;6.90;99.90;;;;;;5007807;28;20498;-70
2022/11/18 01:28:02;;;;;;;35.13;23.02;;;6.90;99.90;;;;;;5007974;28;20156;-70
2022/11/18 01:30:28;;;;;;;40.63;24.60;;;6.90;99.90;;;;;;5007624;28;20042;-71
2022/11/18 01:32:57;;;;;;;37.15;23.90;;;6.90;99.90;;;;;;5007387;28;20045;-70
2022/11/18 01:35:22;;;;;;;34.78;23.20;;;7.00;99.90;;;;;;5007845;28;20483;-70
2022/11/18 01:37:48;;;;;;;37.35;22.50;;;7.40;99.90;;;;;;5003547;28;20069;-71
2022/11/18 01:40:14;;;;;;;35.78;23.83;;;6.90;99.90;;;;;;5007239;28;20038;-70
2022/11/18 01:42:40;;;;;;;35.85;24.15;;;6.90;99.90;;;;;;5007482;28;20068;-70
2022/11/18 01:45:18;;;;;;;39.60;24.50;;;6.90;99.90;;;;;;5006183;28;20045;-70
2022/11/18 01:47:49;;;;;;;37.20;23.88;;;6.90;99.90;;;;;;5007214;28;20396;-70
2022/11/18 01:50:17;;;;;;;38.15;24.35;;;6.90;99.90;;;;;;5007012;28;20045;-70
2022/11/18 01:52:43;;;;;;;38.22;23.60;;;7.40;99.90;;;;;;5004546;28;20045;-70
2022/11/18 01:55:15;;;;;;;36.92;25.15;;;6.90;99.90;;;;;;4989013;28;20038;-70
2022/11/18 01:57:41;;;;;;;36.92;23.00;;;6.90;99.90;;;;;;5006985;28;20742;-70
2022/11/18 02:00:08;;;;;;;33.30;23.60;;;6.80;99.90;;;;;;5002154;28;20058;-71
2022/11/18 02:02:36;;;;;;;35.83;22.75;;;6.80;99.90;;;;;;5006806;28;20038;-70
2022/11/18 02:05:05;;;;;;;41.65;23.83;;;6.80;99.90;;;;;;5006211;28;20053;-70
2022/11/18 02:07:33;;;;;;;41.38;24.58;;;6.80;99.90;;;;;;5004740;28;20048;-69
2022/11/18 02:10:02;;;;;;;37.42;23.02;;;6.80;99.90;;;;;;4989956;28;20396;-70
2022/11/18 02:12:29;;;;;;;39.95;23.35;;;6.80;99.90;;;;;;5000941;28;20487;-70
2022/11/18 02:14:58;;;;;;;35.65;22.10;;;6.80;99.90;;;;;;5002864;28;20034;-70
2022/11/18 02:17:23;;;;;;;39.42;23.05;;;6.80;99.90;;;;;;5005990;28;20069;-71
2022/11/18 02:20:24;;;;;;;34.40;22.02;;;6.80;99.90;;;;;;5000895;28;20806;-71
2022/11/18 02:23:27;;;;;;;33.97;22.10;;;6.80;99.90;;;;;;5004461;28;20049;-70
2022/11/18 02:26:17;;;;;;;38.17;24.00;;;6.80;99.90;;;;;;5003638;28;20676;-70
2022/11/18 02:28:51;;;;;;;33.50;21.90;;;6.80;99.90;;;;;;5002390;28;20156;-71
2022/11/18 02:31:47;;;;;;;34.47;22.25;;;6.80;99.90;;;;;;5005701;28;20080;-71
2022/11/18 02:34:34;;;;;;;33.42;22.35;;;6.80;99.90;;;;;;4999300;28;20046;-71
2022/11/18 02:37:16;;;;;;;35.72;22.27;;;6.70;99.90;;;;;;5005900;28;20034;-72
2022/11/18 02:39:55;;;;;;;38.05;22.30;;;6.80;99.90;;;;;;4989658;28;20526;-69
2022/11/18 02:42:22;;;;;;;35.97;22.17;;;6.80;99.90;;;;;;5004007;28;20570;-70
2022/11/18 02:44:54;;;;;;;37.28;22.42;;;6.80;99.90;;;;;;5007361;28;20418;-70
2022/11/18 02:47:23;;;;;;;37.05;21.30;;;6.80;99.90;;;;;;4992239;28;20052;-71
2022/11/18 02:50:14;;;;;;;37.67;22.55;;;6.80;99.90;;;;;;5006160;28;20041;-71
2022/11/18 02:52:41;;;;;;;35.45;22.40;;;6.70;99.90;;;;;;5004256;28;20132;-70
2022/11/18 02:55:11;;;;;;;37.00;21.42;;;6.80;99.90;;;;;;5004373;28;20057;-70
2022/11/18 02:57:40;;;;;;;36.15;21.73;;;6.80;99.90;;;;;;5005182;28;20624;-71
2022/11/18 03:00:07;;;;;;;36.75;21.70;;;6.70;99.90;;;;;;5005602;28;20049;-70
2022/11/18 03:02:47;;;;;;;34.88;21.85;;;6.70;99.90;;;;;;5005391;28;20537;-69
2022/11/18 03:05:24;;;;;;;39.27;21.70;;;6.70;99.90;;;;;;5003138;28;20054;-68
2022/11/18 03:07:55;;;;;;;35.75;20.58;;;6.70;99.90;;;;;;5002531;28;20046;-70
2022/11/18 03:10:25;;;;;;;32.93;20.63;;;6.70;99.90;;;;;;5004278;28;20383;-71
2022/11/18 03:13:13;;;;;;;35.30;20.70;;;6.70;99.90;;;;;;4992150;28;20410;-71
2022/11/18 03:15:48;;;;;;;39.63;20.60;;;6.70;99.90;;;;;;5005556;28;20046;-70
2022/11/18 03:18:32;;;;;;;41.03;21.27;;;6.70;99.90;;;;;;5003656;28;20100;-71
2022/11/18 03:21:06;;;;;;;39.15;21.13;;;6.70;99.90;;;;;;5006194;28;20044;-71
2022/11/18 03:23:39;;;;;;;34.47;20.70;;;6.70;99.90;;;;;;5004167;28;20073;-70
2022/11/18 03:26:11;;;;;;;38.92;22.48;;;6.70;99.90;;;;;;5005792;28;20462;-70
2022/11/18 03:28:46;;;;;;;38.35;21.52;;;6.90;99.90;;;;;;5006194;28;20038;-70
2022/11/18 03:31:15;;;;;;;35.33;20.45;;;6.70;99.90;;;;;;5004384;28;20084;-70
2022/11/18 03:33:56;;;;;;;34.92;20.27;;;6.60;99.90;;;;;;5004436;28;20064;-70
2022/11/18 03:36:28;;;;;;;35.20;20.35;;;6.70;99.90;;;;;;5003864;28;20046;-70
2022/11/18 03:38:58;;;;;;;37.63;22.27;;;6.60;99.90;;;;;;5001150;28;20045;-70
2022/11/18 03:41:30;;;;;;;36.78;21.02;;;6.70;99.90;;;;;;5005904;28;20139;-70
2022/11/18 03:44:05;;;;;;;34.90;20.15;;;6.70;99.90;;;;;;5004912;28;20396;-70
2022/11/18 03:46:44;;;;;;;36.58;21.30;;;6.60;99.90;;;;;;5004311;28;20038;-69
2022/11/18 03:49:18;;;;;;;33.10;20.50;;;6.60;99.90;;;;;;5003335;28;20100;-71
2022/11/18 03:52:01;;;;;;;37.25;21.67;;;6.60;99.90;;;;;;5001074;28;20069;-70
2022/11/18 03:54:30;;;;;;;35.00;20.90;;;6.60;99.90;;;;;;5006254;28;20049;-70
2022/11/18 03:57:08;;;;;;;33.58;20.02;;;6.60;99.90;;;;;;5006890;28;20109;-71
2022/11/18 03:59:45;;;;;;;36.20;20.35;;;6.60;99.90;;;;;;5004117;28;20045;-71
2022/11/18 04:02:25;;;;;;;36.97;19.88;;;7.20;99.90;;;;;;5005250;28;20111;-71
2022/11/18 04:04:53;;;;;;;35.13;20.08;;;6.60;99.90;;;;;;5005447;28;20054;-70
2022/11/18 04:07:41;;;;;;;31.42;19.15;;;6.50;99.90;;;;;;5004581;28;20581;-71
2022/11/18 04:10:16;;;;;;;32.60;20.58;;;6.60;99.90;;;;;;5006632;28;20507;-70
2022/11/18 04:13:20;;;;;;;29.73;19.33;;;6.60;99.90;;;;;;5005200;28;20165;-70
2022/11/18 04:15:46;;;;;;;33.45;18.80;;;6.60;99.90;;;;;;4951641;28;20191;-70
2022/11/18 04:18:12;;;;;;;29.08;19.55;;;6.50;99.90;;;;;;5001360;28;20049;-71
2022/11/18 04:20:38;;;;;;;30.05;18.75;;;6.60;99.90;;;;;;5006385;28;20171;-70
2022/11/18 04:23:06;;;;;;;35.95;19.77;;;6.60;99.90;;;;;;5005683;28;20057;-71
2022/11/18 04:25:32;;;;;;;34.17;20.45;;;6.50;99.90;;;;;;5006784;28;20617;-70
2022/11/18 04:27:58;;;;;;;35.50;20.05;;;6.50;99.90;;;;;;5008383;28;20495;-71
2022/11/18 04:30:23;;;;;;;34.63;20.02;;;6.50;99.90;;;;;;5009352;28;20049;-71
2022/11/18 04:32:52;;;;;;;30.17;19.17;;;6.50;99.90;;;;;;5007081;28;20438;-71
2022/11/18 04:35:18;;;;;;;35.15;19.60;;;6.50;99.90;;;;;;5008024;28;20034;-71
2022/11/18 04:37:44;;;;;;;31.33;18.52;;;6.50;99.90;;;;;;5009589;28;20046;-70
2022/11/18 04:40:10;;;;;;;39.65;19.63;;;6.50;99.90;;;;;;4992844;28;20375;-70
2022/11/18 04:42:36;;;;;;;31.63;18.48;;;6.50;99.90;;;;;;5008207;28;20143;-71
2022/11/18 04:45:02;;;;;;;31.20;19.23;;;6.50;99.90;;;;;;4986522;28;20077;-70
2022/11/18 04:47:28;;;;;;;33.47;18.60;;;6.50;99.90;;;;;;5008688;28;20406;-71
2022/11/18 04:49:53;;;;;;;28.02;18.23;;;6.50;99.90;;;;;;5006322;28;20050;-70
2022/11/18 04:52:19;;;;;;;29.88;18.08;;;6.40;99.90;;;;;;5009399;28;20045;-70
2022/11/18 04:54:45;;;;;;;33.70;18.42;;;6.50;99.90;;;;;;5005795;28;20042;-70
2022/11/18 04:57:11;;;;;;;30.65;18.65;;;6.40;99.90;;;;;;5004434;28;20037;-70
2022/11/18 04:59:37;;;;;;;27.08;17.25;;;6.40;99.90;;;;;;5007867;28;20043;-70
2022/11/18 05:02:03;;;;;;;33.70;17.83;;;6.40;99.90;;;;;;5005559;28;20038;-71
2022/11/18 05:04:32;;;;;;;32.08;17.45;;;6.40;99.90;;;;;;5006988;28;20081;-71
2022/11/18 05:07:00;;;;;;;29.25;17.67;;;7.00;99.90;;;;;;5006150;28;20462;-71
2022/11/18 05:09:26;;;;;;;30.30;17.55;;;6.40;99.90;;;;;;4993508;28;20061;-71
2022/11/18 05:14:37;;;;;;;28.67;17.17;;;6.40;99.90;;;;;;5007880;28;20050;-71
2022/11/18 05:17:05;;;;;;;28.75;16.63;;;6.40;99.90;;;;;;5006100;28;20041;-71
2022/11/18 05:19:30;;;;;;;29.45;18.27;;;6.40;99.90;;;;;;5007086;28;20124;-72
2022/11/18 05:21:56;;;;;;;28.02;17.05;;;6.40;99.90;;;;;;5006943;28;20165;-72
2022/11/18 05:24:23;;;;;;;27.67;16.98;;;6.40;99.90;;;;;;4989183;28;20584;-71
2022/11/18 05:26:52;;;;;;;23.83;16.20;;;6.40;99.90;;;;;;4991495;28;20495;-72
2022/11/18 05:29:19;;;;;;;29.40;16.60;;;6.40;99.90;;;;;;5007797;28;20042;-72
2022/11/18 05:31:46;;;;;;;27.88;17.52;;;6.80;99.90;;;;;;5007169;28;20042;-72
2022/11/18 05:34:11;;;;;;;29.48;17.15;;;6.40;99.90;;;;;;5005435;28;20057;-71
2022/11/18 05:36:37;;;;;;;26.65;17.17;;;6.40;99.90;;;;;;5008221;28;20493;-72
2022/11/18 05:39:03;;;;;;;28.95;17.77;;;6.30;99.90;;;;;;4988390;28;20049;-71
2022/11/18 05:44:14;;;;;;;27.33;17.05;;;6.30;99.90;;;;;;5008162;28;20042;-72
2022/11/18 05:46:40;;;;;;;30.25;17.30;;;6.30;99.90;;;;;;5005072;28;20057;-72
2022/11/18 05:49:06;;;;;;;30.70;16.95;;;6.30;99.90;;;;;;5003261;28;20045;-71
2022/11/18 05:51:32;;;;;;;35.17;18.15;;;6.30;99.90;;;;;;5004986;28;20052;-69
2022/11/18 05:54:01;;;;;;;29.52;17.38;;;6.30;99.90;;;;;;5004199;28;20046;-69
2022/11/18 05:56:28;;;;;;;33.20;18.27;;;6.30;99.90;;;;;;4991187;28;20042;-70
2022/11/18 05:58:53;;;;;;;31.77;17.73;;;6.30;99.90;;;;;;5006652;28;20088;-70
2022/11/18 06:01:30;;;;;;;30.92;17.92;;;6.20;99.90;;;;;;5000014;28;20131;-71
2022/11/18 06:03:57;;;;;;;33.03;17.75;;;6.20;99.90;;;;;;5004319;28;20152;-69
2022/11/18 06:06:23;;;;;;;31.45;17.27;;;6.20;99.90;;;;;;5006700;28;20046;-70
2022/11/18 06:09:05;;;;;;;33.92;17.15;;;6.30;99.90;;;;;;4985943;28;20038;-70
2022/11/18 06:11:36;;;;;;;32.05;17.85;;;6.20;99.90;;;;;;5005418;28;20057;-69
2022/11/18 06:14:08;;;;;;;30.73;17.30;;;6.20;99.90;;;;;;5000123;28;20521;-70
2022/11/18 06:16:36;;;;;;;34.42;17.48;;;6.20;99.90;;;;;;5007846;28;20046;-70
2022/11/18 06:19:02;;;;;;;33.60;18.17;;;6.20;99.90;;;;;;4985084;28;20092;-70
2022/11/18 06:21:29;;;;;;;30.40;18.55;;;6.30;99.90;;;;;;5003838;28;20076;-70
2022/11/18 06:23:55;;;;;;;34.58;18.02;;;6.20;99.90;;;;;;5002497;28;20045;-70
2022/11/18 06:26:21;;;;;;;34.78;18.98;;;6.20;99.90;;;;;;5001348;28;20052;-70
2022/11/18 06:28:47;;;;;;;34.40;18.98;;;6.20;99.90;;;;;;5003103;28;20407;-71
2022/11/18 06:31:15;;;;;;;36.83;18.50;;;6.20;99.90;;;;;;5004879;28;20096;-70
2022/11/18 06:33:41;;;;;;;34.65;19.00;;;6.20;99.90;;;;;;5003922;28;20076;-70
2022/11/18 06:36:07;;;;;;;33.22;17.35;;;6.10;99.90;;;;;;5005451;28;20129;-69
2022/11/18 06:38:33;;;;;;;36.28;18.10;;;6.10;99.90;;;;;;5005912;28;20042;-69
2022/11/18 06:41:00;;;;;;;34.05;18.55;;;6.10;99.90;;;;;;4998964;28;20049;-69
2022/11/18 06:43:40;;;;;;;35.47;17.45;;;6.10;99.90;;;;;;4996808;28;20111;-70
2022/11/18 06:48:56;;;;;;;35.85;18.73;;;6.10;99.90;;;;;;4986358;28;20053;-72
2022/11/18 06:51:22;;;;;;;37.65;19.30;;;6.10;99.90;;;;;;4990922;28;20037;-71
2022/11/18 06:53:49;;;;;;;36.28;18.65;;;6.10;99.90;;;;;;4995968;28;20461;-71
2022/11/18 06:56:15;;;;;;;35.35;19.30;;;6.10;99.90;;;;;;4999324;28;20073;-72
2022/11/18 06:58:41;;;;;;;39.65;19.38;;;6.00;99.90;;;;;;4996515;28;20438;-72
2022/11/18 07:01:15;;;;;;;38.00;19.13;;;6.00;99.90;;;;;;4978562;28;20044;-72
2022/11/18 07:03:42;;;;;;;39.60;20.13;;;6.00;99.90;;;;;;4998900;28;20051;-72
2022/11/18 07:06:08;;;;;;;35.05;18.55;;;6.00;99.90;;;;;;4993920;28;20506;-72
2022/11/18 07:08:36;;;;;;;37.13;19.83;;;6.10;99.90;;;;;;4996517;28;20042;-71
2022/11/18 07:11:04;;;;;;;38.97;18.60;;;6.10;99.90;;;;;;4995920;28;20041;-70
2022/11/18 07:13:33;;;;;;;39.80;20.02;;;6.60;99.90;;;;;;4994554;28;20041;-71
2022/11/18 07:16:17;;;;;;;41.42;17.88;;;6.00;99.90;;;;;;4995475;28;20038;-70
2022/11/18 07:18:44;;;;;;;37.90;18.88;;;6.00;99.90;;;;;;4996207;28;20402;-71
2022/11/18 07:21:22;;;;;;;39.22;19.77;;;6.00;99.90;;;;;;5001777;28;20056;-71
2022/11/18 07:23:48;;;;;;;39.17;20.55;;;6.00;99.90;;;;;;5004737;28;20045;-70
2022/11/18 07:26:14;;;;;;;36.10;19.38;;;6.00;99.90;;;;;;4996567;28;20062;-72
2022/11/18 07:28:40;;;;;;;38.75;20.02;;;6.50;99.90;;;;;;5002295;28;20046;-71
2022/11/18 07:31:17;;;;;;;40.22;21.38;;;6.00;99.90;;;;;;4998820;28;20077;-71
2022/11/18 07:33:44;;;;;;;34.20;19.08;;;6.00;99.90;;;;;;4997433;28;20128;-72
2022/11/18 07:36:21;;;;;;;34.10;18.10;;;6.00;99.90;;;;;;5000549;28;20571;-72
2022/11/18 07:38:48;;;;;;;40.95;17.40;;;6.00;99.90;;;;;;4993952;28;20129;-71
2022/11/18 07:41:16;;;;;;;37.53;18.80;;;6.00;99.90;;;;;;4996671;28;20049;-71
2022/11/18 07:43:43;;;;;;;38.20;18.45;;;6.10;99.90;;;;;;4996119;28;20464;-70
2022/11/18 07:46:39;;;;;;;40.85;18.38;;;6.00;99.90;;;;;;4995523;28;20507;-69
2022/11/18 07:49:07;;;;;;;37.85;18.55;;;6.00;99.90;;;;;;4994998;28;20057;-71
2022/11/18 07:51:35;;;;;;;36.85;17.95;;;6.00;99.90;;;;;;4996436;28;20107;-72
2022/11/18 07:54:06;;;;;;;36.33;18.77;;;6.00;99.90;;;;;;5000871;28;20510;-71
2022/11/18 07:56:31;;;;;;;37.72;18.63;;;6.00;99.90;;;;;;5002477;28;20407;-70
2022/11/18 07:58:57;;;;;;;40.65;18.88;;;5.90;99.90;;;;;;4996879;28;20041;-71
2022/11/18 08:01:27;;;;;;;35.42;17.45;;;6.00;99.90;;;;;;4999411;28;20361;-71
2022/11/18 08:03:53;;;;;;;37.03;17.20;;;6.00;99.90;;;;;;4982701;28;20054;-72
2022/11/18 08:06:19;;;;;;;35.20;18.67;;;6.00;99.90;;;;;;4997903;28;20050;-71
2022/11/18 08:08:46;;;;;;;34.53;17.33;;;6.10;99.90;;;;;;5001892;28;20065;-72
2022/11/18 08:11:14;;;;;;;32.85;16.67;;;5.90;99.90;;;;;;5002351;28;20050;-70
2022/11/18 08:13:40;;;;;;;48.88;18.40;;;5.90;99.90;;;;;;4999893;28;20049;-71
2022/11/18 08:16:13;;;;;;;36.38;17.23;;;5.90;99.90;;;;;;4998005;28;20045;-71
2022/11/18 08:18:39;;;;;;;37.70;16.70;;;5.90;99.90;;;;;;4998239;28;20258;-72
2022/11/18 08:21:05;;;;;;;29.95;16.50;;;5.90;99.90;;;;;;5000008;28;20050;-71
2022/11/18 08:23:31;;;;;;;33.75;17.15;;;5.90;99.90;;;;;;4999866;28;20038;-69
2022/11/18 08:26:09;;;;;;;32.70;16.77;;;5.90;99.90;;;;;;5002853;28;20834;-71
2022/11/18 08:28:35;;;;;;;29.88;15.82;;;5.90;99.90;;;;;;4987757;28;20388;-70
2022/11/18 08:31:16;;;;;;;32.53;15.90;;;6.00;99.90;;;;;;5004626;28;20042;-71
2022/11/18 08:33:41;;;;;;;29.75;14.15;;;5.90;99.90;;;;;;5005402;28;20057;-70
2022/11/18 08:36:17;;;;;;;29.65;14.70;;;5.90;99.90;;;;;;5005521;28;20398;-72
2022/11/18 08:38:43;;;;;;;28.45;15.20;;;5.90;99.90;;;;;;5005843;28;20046;-72
2022/11/18 08:41:13;;;;;;;26.13;15.23;;;5.90;99.90;;;;;;5005387;28;20045;-71
2022/11/18 08:43:38;;;;;;;33.20;15.35;;;5.90;99.90;;;;;;5002974;28;20045;-72
2022/11/18 08:46:04;;;;;;;30.23;15.63;;;5.90;99.90;;;;;;5002781;28;20057;-71
2022/11/18 08:48:30;;;;;;;34.00;15.57;;;5.90;99.90;;;;;;5003578;28;20471;-72
2022/11/18 08:50:57;;;;;;;29.83;15.05;;;5.90;99.90;;;;;;5005333;28;20259;-72
2022/11/18 08:53:23;;;;;;;30.05;15.10;;;5.90;99.90;;;;;;5003971;28;20067;-72
2022/11/18 08:55:57;;;;;;;29.52;14.25;;;5.90;99.90;;;;;;5004117;28;20052;-72
2022/11/18 08:58:24;;;;;;;25.58;14.00;;;5.90;99.90;;;;;;5004808;28;20495;-72
2022/11/18 09:00:52;;;;;;;25.92;14.02;;;5.90;99.90;;;;;;4988789;28;20050;-71
2022/11/18 09:03:18;;;;;;;30.45;13.88;;;6.30;99.90;;;;;;5005771;28;20046;-72
2022/11/18 09:05:44;;;;;;;27.83;14.20;;;5.90;99.90;;;;;;5004602;28;20099;-71
2022/11/18 09:08:10;;;;;;;24.73;13.65;;;5.90;99.90;;;;;;4987736;28;20042;-71
2022/11/18 09:10:36;;;;;;;24.45;13.85;;;5.90;99.90;;;;;;4990143;28;20058;-71
2022/11/18 09:13:03;;;;;;;26.52;14.00;;;5.90;99.90;;;;;;5005457;28;20398;-71
2022/11/18 09:15:29;;;;;;;26.60;14.00;;;5.90;99.90;;;;;;4988807;28;20133;-71
2022/11/18 09:17:56;;;;;;;24.40;13.77;;;5.90;99.90;;;;;;5005572;28;20057;-71
2022/11/18 09:20:21;;;;;;;22.95;12.75;;;5.90;99.90;;;;;;4990537;28;20049;-71
2022/11/18 09:22:47;;;;;;;25.50;12.90;;;5.90;99.90;;;;;;5003131;28;20414;-71
2022/11/18 09:25:13;;;;;;;24.52;13.13;;;5.90;99.90;;;;;;5003627;28;20038;-71
2022/11/18 09:27:39;;;;;;;22.98;12.38;;;5.90;99.90;;;;;;5002285;28;20057;-71
2022/11/18 09:30:05;;;;;;;21.85;12.13;;;6.00;99.90;;;;;;5004327;28;20117;-71
2022/11/18 09:32:32;;;;;;;24.48;11.57;;;5.80;99.90;;;;;;5002879;28;20064;-71
2022/11/18 09:34:58;;;;;;;23.60;11.57;;;5.80;99.90;;;;;;5004708;28;20046;-71
2022/11/18 09:37:24;;;;;;;20.27;12.25;;;5.80;99.90;;;;;;5003036;28;20044;-71
2022/11/18 09:39:50;;;;;;;22.77;12.32;;;5.80;99.90;;;;;;4987567;28;20038;-71
2022/11/18 09:42:31;;;;;;;25.58;11.98;;;5.80;99.90;;;;;;5003139;28;20753;-71
2022/11/18 09:45:27;;;;;;;21.13;11.95;;;5.90;99.90;;;;;;5001674;28;20037;-72
2022/11/18 09:47:58;;;;;;;18.33;11.43;;;5.90;99.90;;;;;;4999556;28;20062;-72
2022/11/18 09:50:24;;;;;;;21.65;11.10;;;5.80;99.90;;;;;;4998203;28;20606;-72
2022/11/18 09:53:05;;;;;;;24.48;11.57;;;5.90;99.90;;;;;;4985279;28;20057;-71
2022/11/18 09:55:36;;;;;;;21.63;11.80;;;5.80;99.90;;;;;;5003406;28;20049;-71
2022/11/18 09:58:02;;;;;;;27.00;11.88;;;5.80;99.90;;;;;;5002419;28;20054;-71
2022/11/18 10:00:29;;;;;;;20.52;11.65;;;5.80;99.90;;;;;;5003027;28;20422;-72
2022/11/18 10:03:00;;;;;;;22.42;11.48;;;5.80;99.90;;;;;;5003082;28;20477;-72
2022/11/18 10:05:27;;;;;;;24.00;12.10;;;5.80;99.90;;;;;;5001652;28;20058;-71
2022/11/18 10:07:59;;;;;;;21.20;11.30;;;5.80;99.90;;;;;;4986489;28;20818;-72
2022/11/18 10:10:44;;;;;;;23.17;11.77;;;5.80;99.90;;;;;;5004673;28;20156;-72
2022/11/18 10:13:36;;;;;;;20.98;11.95;;;5.80;99.90;;;;;;4999462;28;20038;-71
2022/11/18 10:16:16;;;;;;;21.50;11.43;;;5.70;99.90;;;;;;5001970;28;20052;-71
2022/11/18 10:19:07;;;;;;;21.27;11.90;;;5.70;99.90;;;;;;5004541;28;20443;-72
2022/11/18 10:21:53;;;;;;;24.52;11.48;;;5.70;99.90;;;;;;5004485;28;20502;-71
2022/11/18 10:24:22;;;;;;;19.10;11.05;;;5.70;99.90;;;;;;5003750;28;20053;-72
2022/11/18 10:26:54;;;;;;;21.60;11.15;;;5.70;99.90;;;;;;5002953;28;20537;-72
2022/11/18 10:29:20;;;;;;;26.25;13.05;;;5.70;99.90;;;;;;4986602;28;20447;-72
2022/11/18 10:32:02;;;;;;;23.55;11.63;;;5.70;99.90;;;;;;4985799;28;20038;-71
2022/11/18 10:34:29;;;;;;;21.30;11.18;;;5.70;99.90;;;;;;4985447;28;20162;-72
2022/11/18 10:37:04;;;;;;;21.42;11.90;;;5.70;99.90;;;;;;5002901;28;20049;-72
2022/11/18 10:39:31;;;;;;;25.33;12.50;;;5.70;99.90;;;;;;5002350;28;20042;-72
2022/11/18 10:42:05;;;;;;;21.98;11.48;;;5.70;99.90;;;;;;4984644;28;20041;-71
2022/11/18 10:44:35;;;;;;;24.38;12.30;;;5.70;99.90;;;;;;5002113;28;20048;-71
2022/11/18 10:47:25;;;;;;;23.23;11.82;;;5.70;99.90;;;;;;4999208;28;20049;-72
2022/11/18 10:49:52;;;;;;;26.67;12.63;;;5.60;99.90;;;;;;5003319;28;20982;-71
2022/11/18 10:52:18;;;;;;;25.17;12.77;;;5.60;99.90;;;;;;5001847;28;20073;-71
2022/11/18 10:54:44;;;;;;;25.45;13.43;;;5.70;99.90;;;;;;4982862;28;20080;-72
2022/11/18 10:57:19;;;;;;;24.90;13.35;;;5.60;99.90;;;;;;4997588;28;20046;-72
2022/11/18 10:59:51;;;;;;;24.00;13.38;;;5.60;99.90;;;;;;4982189;28;20054;-72
2022/11/18 11:02:29;;;;;;;28.30;14.57;;;5.60;99.90;;;;;;4985236;28;20061;-71
2022/11/18 11:05:14;;;;;;;26.05;14.20;;;5.60;99.90;;;;;;4997509;28;20064;-72
2022/11/18 11:07:40;;;;;;;29.00;13.85;;;5.50;99.90;;;;;;4998163;28;20141;-72
2022/11/18 11:10:26;;;;;;;25.90;14.13;;;5.50;99.90;;;;;;5000561;28;20125;-71
2022/11/18 11:12:58;;;;;;;25.75;13.48;;;5.50;99.90;;;;;;4984030;28;20173;-71
2022/11/18 11:15:44;;;;;;;27.48;13.60;;;5.50;99.90;;;;;;4983159;28;20406;-71
2022/11/18 11:18:40;;;;;;;24.85;13.75;;;5.40;99.90;;;;;;5000340;28;20125;-72
2022/11/18 11:21:11;;;;;;;25.90;12.82;;;5.40;99.90;;;;;;5001257;28;20053;-72
2022/11/18 11:23:37;;;;;;;22.88;12.73;;;5.40;99.90;;;;;;4999871;28;20049;-71
2022/11/18 11:26:14;;;;;;;24.83;13.32;;;5.30;99.90;;;;;;5001025;28;20034;-71
2022/11/18 11:28:49;;;;;;;26.30;13.55;;;5.40;99.90;;;;;;4999759;28;20041;-70
2022/11/18 11:31:27;;;;;;;32.05;14.88;;;5.30;99.90;;;;;;4983710;28;20124;-72
2022/11/18 11:34:24;;;;;;;24.52;13.25;;;5.30;99.90;;;;;;5000197;28;20394;-71
2022/11/18 11:37:10;;;;;;;27.20;14.20;;;5.20;99.90;;;;;;4998744;28;20096;-71
2022/11/18 11:40:05;;;;;;;24.33;13.48;;;5.20;99.90;;;;;;5000190;28;21482;-72
2022/11/18 11:42:59;;;;;;;34.60;17.58;;;5.20;99.90;;;;;;4989354;28;20980;-72
2022/11/18 11:45:34;;;;;;;31.17;17.92;;;5.20;99.90;;;;;;4999281;28;21089;-72
2022/11/18 11:48:34;;;;;;;38.97;19.50;;;5.20;99.90;;;;;;4999682;28;20046;-71
2022/11/18 11:51:05;;;;;;;38.00;20.98;;;5.10;99.90;;;;;;4994353;28;20506;-71
2022/11/18 11:54:01;;;;;;;40.28;21.17;;;5.10;99.90;;;;;;4995765;28;20042;-72
2022/11/18 11:56:58;;;;;;;43.08;21.35;;;5.00;99.90;;;;;;4983222;28;20510;-72
2022/11/18 11:59:35;;;;;;;41.58;20.95;;;5.00;99.90;;;;;;5001257;28;20034;-72
2022/11/18 12:02:19;;;;;;;38.33;20.30;;;4.90;99.90;;;;;;4983822;28;20048;-72
2022/11/18 12:04:50;;;;;;;37.53;19.65;;;4.90;99.90;;;;;;5001286;28;20061;-71
2022/11/18 12:07:20;;;;;;;39.92;20.27;;;4.90;99.90;;;;;;4994604;28;20061;-72
2022/11/18 12:10:03;;;;;;;37.13;19.25;;;4.80;99.90;;;;;;4999059;28;20089;-71
2022/11/18 12:12:37;;;;;;;34.58;16.67;;;4.80;99.90;;;;;;4979360;28;20407;-73
2022/11/18 12:15:17;;;;;;;29.98;15.93;;;4.80;99.90;;;;;;4983543;28;20089;-72
2022/11/18 12:17:57;;;;;;;30.33;16.30;;;4.80;99.90;;;;;;5002091;28;20046;-72
2022/11/18 12:20:47;;;;;;;33.42;16.55;;;4.80;99.90;;;;;;4994059;28;20061;-71
2022/11/18 12:23:25;;;;;;;31.63;17.35;;;4.70;99.90;;;;;;4998794;28;20049;-71
2022/11/18 12:25:59;;;;;;;33.13;16.48;;;4.70;99.90;;;;;;4998419;28;20038;-72
2022/11/18 12:28:27;;;;;;;30.13;16.15;;;4.70;99.90;;;;;;5000813;28;20038;-71
2022/11/18 12:31:15;;;;;;;33.10;16.50;;;4.80;99.90;;;;;;5002846;28;20034;-72
2022/11/18 12:33:56;;;;;;;32.10;16.08;;;4.70;99.90;;;;;;4999177;28;20447;-72
2022/11/18 12:36:41;;;;;;;30.45;16.35;;;4.70;99.90;;;;;;4987389;28;20045;-71
2022/11/18 12:39:26;;;;;;;33.80;17.27;;;4.70;99.90;;;;;;4985332;28;20403;-72
2022/11/18 12:44:42;;;;;;;34.05;16.35;;;4.70;99.90;;;;;;5002787;28;20046;-73
2022/11/18 12:47:11;;;;;;;34.45;17.58;;;4.70;99.90;;;;;;5005018;28;20057;-72
2022/11/18 12:49:36;;;;;;;30.88;16.73;;;4.60;99.90;;;;;;5007396;28;20060;-72
2022/11/18 12:52:06;;;;;;;29.35;16.33;;;4.60;99.90;;;;;;5005664;28;20042;-72
2022/11/18 12:54:42;;;;;;;32.05;17.17;;;4.50;99.90;;;;;;5007508;28;20053;-72
2022/11/18 12:57:18;;;;;;;32.13;17.38;;;4.50;99.90;;;;;;5008059;28;20034;-72
2022/11/18 12:59:43;;;;;;;32.47;17.58;;;4.50;99.90;;;;;;5005687;28;20085;-73
2022/11/18 13:02:20;;;;;;;36.47;18.95;;;4.70;99.90;;;;;;5006538;28;20072;-71
2022/11/18 13:05:06;;;;;;;37.28;17.90;;;4.50;99.90;;;;;;5005828;28;20074;-72
2022/11/18 13:10:26;;;;;;;38.63;18.60;;;4.50;99.90;;;;;;4986549;28;20058;-71
2022/11/18 13:12:53;;;;;;;36.63;18.67;;;4.60;99.90;;;;;;5003897;28;20058;-72
2022/11/18 13:18:19;;;;;;;36.28;17.77;;;4.60;99.90;;;;;;4983035;28;20072;-72
2022/11/18 13:23:50;;;;;;;35.47;19.30;;;4.50;99.90;;;;;;4993158;28;20065;-72